• Join FlightAware (Why Join?)
  • Login
  • US Flag 
06:10AM EST


 

Airport Tracker/Info


-or-


 

Live Flight TrackerFlight Track Log ✈ N40F ✈ 26-Dec-2013 ✈ KDPA - KLNL

Flight Track Log - Related Links

Times and Time Zones

All times are in EST time to prevent confusion due to time zone crossing. See the N40F flight status page for this flight to view local times or setup timezone preferences in your user account.

Time Position Orientation Groundspeed Altitude Reporting Facility
EST Latitude Longitude Course Direction KTS MPH feet Rate Location/Type
01:12PM 41.9000 -88.2667 304° West 110 127 1,700  Level Chicago TRACON
01:13PM 41.9167 -88.3000 304° West 119 137 3,200 1,140 Climbing Chicago TRACON
01:14PM 41.9500 -88.3000 360° North 136 157 4,000 360 Climbing Chicago TRACON
01:15PM 42.0000 -88.2833 14° North 169 194 4,000  Level Chicago TRACON
01:16PM 42.0500 -88.2833 360° North 178 205 4,000  Level Chicago TRACON
01:17PM 42.0644 -88.2750 23° Northeast 167 192 4,000  Level Chicago Center
01:18PM 42.1136 -88.2653 North 175 201 4,000  Level Chicago Center
01:19PM 42.1628 -88.2561 North 178 205 4,000  Level Chicago Center
01:20PM 42.2222 -88.2428 North 180 207 4,000  Level Chicago Center
01:21PM 42.2717 -88.2344 North 180 207 4,000 300 Level Chicago Center
01:22PM 42.3194 -88.2244 North 176 203 4,700 720 Climbing Chicago Center
01:23PM 42.3592 -88.2336 350° North 144 166 5,600 600 Climbing Chicago Center
01:24PM 42.3928 -88.2444 347° North 129 148 6,000 180 Climbing Chicago Center
01:25PM 42.4319 -88.2544 349° North 139 160 6,000  Level Chicago Center
01:26PM 42.4722 -88.2667 347° North 146 168 6,000  Level Chicago Center
01:27PM 42.5217 -88.2767 352° North 149 171 6,000  Level Chicago Center
01:28PM 42.5611 -88.2864 350° North 146 168 6,000  Level Chicago Center
01:29PM 42.6022 -88.2950 351° North 148 170 6,000  Level Chicago Center
01:30PM 42.6431 -88.3064 348° North 150 173 6,000  Level Chicago Center
01:31PM 42.6844 -88.3150 351° North 150 173 6,000  Level Chicago Center
01:32PM 42.7253 -88.3264 348° North 150 173 6,000  Level Chicago Center
01:33PM 42.7742 -88.3392 349° North 150 173 6,000  Level Chicago Center
01:34PM 42.8156 -88.3483 351° North 150 173 6,000  Level Chicago Center
01:35PM 42.8581 -88.3575 351° North 153 176 6,000  Level Chicago Center
01:36PM 42.8986 -88.3703 347° North 151 174 6,000  Level Chicago Center
01:37PM 42.9408 -88.3786 352° North 153 176 6,000  Level Chicago Center
01:38PM 42.9836 -88.3894 350° North 154 177 6,000  Level Chicago Center
01:39PM 43.0350 -88.4014 350° North 156 180 6,000  Level Chicago Center
01:40PM 43.0769 -88.4122 349° North 154 177 6,000  Level Chicago Center
01:42PM 43.1192 -88.4225 350° North 155 178 6,000  Level Chicago Center
01:43PM 43.1622 -88.4331 350° North 156 180 6,000 120 Level Chicago Center
01:44PM 43.2058 -88.4433 350° North 157 181 6,300 240 Climbing Chicago Center
01:45PM 43.2433 -88.4544 348° North 149 171 6,600 120 Climbing Chicago Center
01:46PM 43.2911 -88.4653 351° North 145 167 6,600 240 Level Chicago Center
01:47PM 43.3314 -88.4761 349° North 147 169 7,100 240 Climbing Chicago Center
01:48PM 43.3689 -88.4856 350° North 143 165 7,100  Level Chicago Center
01:49PM 43.4097 -88.4947 351° North 144 166 7,100  Level Chicago Center
01:50PM 43.4581 -88.5067 350° North 146 168 7,100 -60 Level Chicago Center
01:51PM 43.4947 -88.5167 349° North 153 176 7,000  Descending Chicago Center
01:52PM 43.5356 -88.5267 350° North 152 175 7,100  Climbing Chicago Center
01:53PM 43.5764 -88.5369 350° North 149 171 7,000 240 Descending Chicago Center
01:54PM 43.6206 -88.5486 349° North 143 165 7,700 480 Climbing Chicago Center
01:55PM 43.6542 -88.5578 349° North 132 152 8,000 120 Climbing Chicago Center
01:56PM 43.6889 -88.5661 350° North 128 147 8,000  Level Chicago Center
01:57PM 43.7267 -88.5756 350° North 132 152 8,000  Level Chicago Center
01:58PM 43.7653 -88.5858 349° North 137 158 8,000  Level Chicago Center
01:59PM 43.8042 -88.5956 350° North 140 161 8,000  Level Chicago Center
02:00PM 43.8503 -88.6069 350° North 141 162 8,000  Level Chicago Center
02:01PM 43.8886 -88.6164 350° North 140 161 8,000  Level Chicago Center
02:02PM 43.9272 -88.6267 349° North 140 161 8,000  Level Chicago Center
02:03PM 43.9658 -88.6364 350° North 141 162 8,000  Level Chicago Center
02:04PM 44.0042 -88.6458 350° North 141 162 8,000  Level Chicago Center
02:05PM 44.0419 -88.6567 348° North 139 160 8,000  Level Chicago Center
02:06PM 44.0883 -88.6672 351° North 141 162 8,000  Level Chicago Center
02:08PM 44.1256 -88.6769 349° North 139 160 8,000  Level Minneapolis Center
02:09PM 44.1706 -88.6889 349° North 138 159 8,000  Level Minneapolis Center
02:10PM 44.2078 -88.6975 351° North 137 158 8,000  Level Minneapolis Center
02:11PM 44.2467 -88.7072 350° North 139 160 8,000  Level Minneapolis Center
02:12PM 44.2847 -88.7169 350° North 140 161 8,000  Level Minneapolis Center
02:13PM 44.3231 -88.7267 350° North 139 160 8,000  Level Minneapolis Center
02:14PM 44.3611 -88.7369 349° North 139 160 8,000  Level Minneapolis Center
02:15PM 44.4067 -88.7483 350° North 139 160 8,000  Level Minneapolis Center
02:16PM 44.4439 -88.7581 349° North 137 158 8,000  Level Minneapolis Center
02:17PM 44.4825 -88.7678 350° North 140 161 8,000  Level Minneapolis Center
02:18PM 44.5206 -88.7772 350° North 140 161 8,000  Level Minneapolis Center
02:19PM 44.5583 -88.7900 346° North 140 161 8,000  Level Minneapolis Center
02:20PM 44.5958 -88.7992 350° North 138 159 8,000  Level Minneapolis Center
02:21PM 44.6419 -88.8103 350° North 140 161 8,000  Level Minneapolis Center
02:22PM 44.6800 -88.8206 349° North 140 161 8,000  Level Minneapolis Center
02:23PM 44.7178 -88.8303 350° North 139 160 8,000  Level Minneapolis Center
02:24PM 44.7550 -88.8411 348° North 138 159 8,100  Climbing Minneapolis Center
02:25PM 44.7928 -88.8494 351° North 136 157 8,000 -60 Descending Minneapolis Center
02:26PM 44.8303 -88.8594 349° North 138 159 8,000  Level Minneapolis Center
02:27PM 44.8753 -88.8728 348° North 138 159 8,000  Level Minneapolis Center
02:28PM 44.9131 -88.8814 351° North 138 159 8,000  Level Minneapolis Center
02:29PM 44.9497 -88.8919 348° North 136 157 8,000  Level Minneapolis Center
02:30PM 44.9867 -88.9008 350° North 136 157 8,000  Level Minneapolis Center
02:31PM 45.0239 -88.9114 349° North 136 157 8,000 -60 Level Minneapolis Center
02:32PM 45.0628 -88.9219 349° North 136 157 7,900  Descending Minneapolis Center
02:33PM 45.0992 -88.9314 350° North 133 153 8,000  Climbing Minneapolis Center
02:34PM 45.1425 -88.9442 348° North 133 153 8,000  Level Minneapolis Center
02:35PM 45.1800 -88.9522 351° North 135 155 8,000  Level Minneapolis Center
02:36PM 45.2169 -88.9617 350° North 134 154 8,000  Level Minneapolis Center
02:37PM 45.2550 -88.9714 350° North 137 158 8,000  Level Minneapolis Center
02:39PM 45.2931 -88.9814 350° North 138 159 8,000  Level Minneapolis Center
02:40PM 45.3311 -88.9908 350° North 140 161 8,000  Level Minneapolis Center
02:41PM 45.3683 -89.0022 348° North 139 160 8,000  Level Minneapolis Center
02:42PM 45.4136 -89.0150 349° North 138 159 8,000  Level Minneapolis Center
02:43PM 45.4522 -89.0250 350° North 139 160 8,000  Level Minneapolis Center
02:44PM 45.4900 -89.0344 350° North 139 160 8,000  Level Minneapolis Center
02:45PM 45.5281 -89.0450 349° North 139 160 8,000  Level Minneapolis Center
02:46PM 45.5667 -89.0564 348° North 140 161 8,100 -300 Climbing Minneapolis Center
02:47PM 45.6028 -89.0633 352° North 135 155 7,400 -720 Descending Minneapolis Center
02:48PM 45.6506 -89.0767 349° North 142 163 6,700 -660 Descending Minneapolis Center
02:49PM 45.6906 -89.0875 349° North 144 166 6,100 -540 Descending Minneapolis Center
02:50PM 45.7317 -89.0975 350° North 148 170 5,600 -540 Descending Minneapolis Center
02:51PM 45.7719 -89.1094 348° North 148 170 5,100 -480 Descending Minneapolis Center
02:52PM 45.8111 -89.1197 350° North 146 168 4,700 -480 Descending Minneapolis Center
02:53PM 45.8508 -89.1308 349° North 145 167 4,200 -480 Descending Minneapolis Center
02:54PM 45.8903 -89.1411 350° North 145 167 3,800 -360 Descending Minneapolis Center
02:55PM 45.9369 -89.1544 349° North 143 165 3,500 -180 Descending Minneapolis Center
02:56PM 45.9775 -89.1661 349° North 146 168 3,500  Level Minneapolis Center
02:58PM 46.0417 -89.1787 352° North  Level FlightAware Approximate
03:05PM 46.1500 -89.2000 350° North  Level FlightAware Approximate
03:06PM 46.1541 -89.2120 350° North  Level Estimated
03:07PM 46.1541 -89.2120 350° North  Level Estimated